Godoy Moreira, Brazil
Current Conditions -  °F | °C
As of 11:30 PM on Saturday 22 Nov 2014 (Local Time) from SBMG Reporting Station
Clear Clear  
Wind Chill: 70°   Ceiling: Unl
Heat Index: 70°   Visibility: 6mi
Dew Point: 68°   Wind: 1mph
Humidity: 94%   Direction: 300°WNW
Pressure: 29.91"   Gusts: NA
Location:  24.18°S, 51.92°W
Report Text: SBMG 230130Z 30001KT CAVOK 21/20 Q1013
Loading
Personal Weather Stations






























Interactive Weather Map New forecast layout! Learn more

10-Day Weather Forecast

Advertisements
Track Severe Weather on mobile